Time;durP1;ratioP1;P1;durP2;ratioP2;P2;SDS_P1;SDS_P2;PMS_P1;PMS_P2;Temp;Humidity;BMP_temperature;BMP_pressure;BME280_temperature;BME280_humidity;BME280_pressure;Samples;Min_cycle;Max_cycle;Signal;HPM_P1;HPM_P2
2022/01/27 00:03:49;;;;;;;17.30;5.65;;;;;;;-6.40;95.22;99567.16;5014224;28;20091;-64
2022/01/27 00:06:18;;;;;;;15.02;5.53;;;;;;;-6.43;94.60;99582.16;5028553;28;20141;-64
2022/01/27 00:11:15;;;;;;;12.82;4.45;;;;;;;-6.49;94.81;99582.31;5012491;28;20140;-64
2022/01/27 00:13:54;;;;;;;12.30;4.47;;;;;;;-6.57;95.06;99575.53;5012496;28;20038;-64
2022/01/27 00:16:24;;;;;;;11.95;4.35;;;;;;;-6.56;95.57;99582.50;4997734;28;20167;-65
2022/01/27 00:18:51;;;;;;;12.45;4.45;;;;;;;-6.65;95.59;99571.44;5013235;28;20049;-64
2022/01/27 00:21:26;;;;;;;11.35;4.47;;;;;;;-6.53;95.43;99578.94;4981342;28;20475;-64
2022/01/27 00:23:52;;;;;;;13.35;4.97;;;;;;;-6.51;94.92;99584.13;5013702;28;20099;-65
2022/01/27 00:26:19;;;;;;;14.93;4.88;;;;;;;-6.60;94.36;99572.13;4996069;28;20141;-63
2022/01/27 00:28:46;;;;;;;14.60;5.05;;;;;;;-6.57;94.16;99580.78;5012054;28;20092;-64
2022/01/27 00:31:13;;;;;;;12.98;4.72;;;;;;;-6.75;93.79;99564.72;4995859;28;20049;-63
2022/01/27 00:33:39;;;;;;;13.68;4.80;;;;;;;-6.60;92.95;99591.41;5012149;28;20139;-63
2022/01/27 00:36:06;;;;;;;11.90;4.68;;;;;;;-6.68;93.80;99582.88;5012439;28;20038;-63
2022/01/27 00:38:31;;;;;;;14.02;4.68;;;;;;;-6.64;93.68;99588.91;4996387;28;20044;-64
2022/01/27 00:40:57;;;;;;;14.43;5.55;;;;;;;-6.70;94.04;99589.94;4980362;28;20045;-64
2022/01/27 00:43:23;;;;;;;11.90;5.63;;;;;;;-6.70;94.19;99589.94;4995607;28;20043;-65
2022/01/27 00:45:49;;;;;;;19.08;5.45;;;;;;;-6.74;94.35;99585.69;4979407;28;20080;-64
2022/01/27 00:48:17;;;;;;;13.75;4.93;;;;;;;-6.68;93.99;99588.13;4995349;28;20037;-64
2022/01/27 00:50:46;;;;;;;12.38;4.88;;;;;;;-6.61;94.34;99587.06;4979546;28;20489;-64
2022/01/27 00:53:36;;;;;;;14.02;4.82;;;;;;;-6.74;93.91;99561.16;5012306;28;20485;-64
2022/01/27 00:56:15;;;;;;;14.43;5.05;;;;;;;-6.64;93.86;99592.41;5012412;28;20072;-64
2022/01/27 00:58:59;;;;;;;14.30;4.70;;;;;;;-6.75;94.13;99570.81;5013029;28;20071;-63
2022/01/27 01:01:31;;;;;;;12.55;4.82;;;;;;;-6.69;94.94;99578.53;5014601;28;20084;-64
2022/01/27 01:04:00;;;;;;;12.20;4.35;;;;;;;-6.69;95.30;99581.16;5000217;28;20041;-62
2022/01/27 01:06:38;;;;;;;12.55;4.75;;;;;;;-6.62;94.82;99572.19;5015855;28;20049;-63
2022/01/27 01:16:59;;;;;;;16.25;6.15;;;;;;;-6.78;95.98;99570.91;5016360;28;20042;-62
2022/01/27 01:30:47;;;;;;;15.82;5.70;;;;;;;-6.90;97.17;99568.66;5015405;28;20115;-64
2022/01/27 01:33:20;;;;;;;16.13;6.22;;;;;;;-6.94;97.56;99560.00;5000846;28;20041;-64
2022/01/27 01:35:49;;;;;;;13.63;5.57;;;;;;;-6.99;97.52;99561.03;5015037;28;20045;-63
2022/01/27 01:38:20;;;;;;;15.63;6.70;;;;;;;-6.96;97.71;99561.78;4998479;28;20420;-63
2022/01/27 01:40:48;;;;;;;14.23;5.13;;;;;;;-7.03;97.57;99555.84;5015212;28;20057;-64
2022/01/27 01:43:15;;;;;;;17.17;5.68;;;;;;;-7.01;97.83;99557.59;4982172;28;20514;-64
2022/01/27 01:45:41;;;;;;;14.40;6.18;;;;;;;-6.93;97.55;99560.84;5014601;28;20072;-63
2022/01/27 01:48:07;;;;;;;15.85;6.30;;;;;;;-7.01;97.86;99562.84;5031023;28;20496;-63
2022/01/27 01:50:33;;;;;;;33.45;7.03;;;;;;;-7.26;98.25;99521.50;5014349;28;20220;-64
2022/01/27 01:52:58;;;;;;;16.40;6.90;;;;;;;-7.08;97.75;99563.00;4998206;28;20360;-64
2022/01/27 01:55:24;;;;;;;15.82;6.00;;;;;;;-7.05;97.50;99560.31;5014357;28;20049;-64
2022/01/27 01:57:51;;;;;;;14.25;5.40;;;;;;;-7.08;96.80;99560.38;4982111;28;20067;-64
2022/01/27 02:00:17;;;;;;;13.23;5.15;;;;;;;-7.07;96.30;99554.22;4998359;28;20111;-64
2022/01/27 02:02:43;;;;;;;14.88;5.45;;;;;;;-6.93;96.64;99550.34;4998141;28;20049;-64
2022/01/27 02:05:08;;;;;;;12.75;5.28;;;;;;;-6.96;96.11;99560.94;5014326;28;20053;-64
2022/01/27 02:07:47;;;;;;;12.88;4.63;;;;;;;-7.00;95.46;99551.44;4981632;28;20084;-63
2022/01/27 02:18:16;;;;;;;12.05;4.88;;;;;;;-7.05;95.39;99547.16;4977768;28;20080;-62
2022/01/27 02:20:42;;;;;;;17.02;5.28;;;;;;;-7.04;95.56;99551.50;4997730;28;20122;-63
2022/01/27 02:23:09;;;;;;;13.65;5.50;;;;;;;-7.17;96.09;99547.50;5014263;28;20041;-64
2022/01/27 02:25:35;;;;;;;12.00;4.57;;;;;;;-7.09;95.39;99550.78;5014484;28;20054;-65
2022/01/27 02:28:02;;;;;;;14.63;4.57;;;;;;;-7.07;94.34;99554.22;4981718;28;20048;-64
2022/01/27 02:30:28;;;;;;;14.40;4.72;;;;;;;-7.13;94.95;99545.66;5013809;28;20052;-64
2022/01/27 02:32:54;;;;;;;13.35;5.57;;;;;;;-7.07;94.99;99558.63;5014337;28;20050;-63
2022/01/27 02:35:23;;;;;;;11.40;5.10;;;;;;;-7.08;95.22;99551.66;5014292;28;20049;-66
2022/01/27 02:37:50;;;;;;;11.00;4.45;;;;;;;-7.06;95.31;99555.97;5014026;28;20052;-64
2022/01/27 02:40:48;;;;;;;15.20;5.63;;;;;;;-7.05;95.92;99559.44;4997508;28;20068;-64
2022/01/27 02:43:14;;;;;;;15.27;5.15;;;;;;;-7.05;95.63;99557.69;5013958;28;20531;-66
2022/01/27 02:45:54;;;;;;;15.43;5.90;;;;;;;-7.11;94.15;99552.59;5013929;28;20049;-65
2022/01/27 02:48:20;;;;;;;15.65;5.70;;;;;;;-7.03;91.81;99560.25;5030136;28;20053;-63
2022/01/27 02:50:46;;;;;;;17.98;5.30;;;;;;;-7.05;90.85;99562.06;5013680;28;20149;-64
2022/01/27 02:53:12;;;;;;;16.90;6.97;;;;;;;-7.18;95.13;99556.28;4980977;28;20140;-64
2022/01/27 02:55:38;;;;;;;25.40;7.57;;;;;;;-7.38;98.30;99532.38;4997733;28;20492;-65
2022/01/27 02:58:04;;;;;;;16.08;8.05;;;;;;;-7.31;98.22;99550.53;5013986;28;20099;-62
2022/01/27 03:00:31;;;;;;;18.10;7.38;;;;;;;-7.34;98.50;99555.00;5014180;28;20099;-64
2022/01/27 03:02:57;;;;;;;18.60;8.35;;;;;;;-7.37;98.75;99555.09;5013716;28;20493;-64
2022/01/27 03:05:23;;;;;;;17.95;8.05;;;;;;;-7.31;98.96;99549.69;4997198;28;20115;-65
2022/01/27 03:07:48;;;;;;;23.05;7.85;;;;;;;-7.23;98.45;99552.94;4997106;28;20049;-64
2022/01/27 03:10:19;;;;;;;16.17;6.72;;;;;;;-7.23;96.54;99550.31;5029462;28;20370;-64
2022/01/27 03:12:47;;;;;;;18.63;7.25;;;;;;;-7.25;96.67;99543.38;4980786;28;20491;-64
2022/01/27 03:15:13;;;;;;;20.90;6.53;;;;;;;-7.26;95.00;99547.78;5030016;28;20064;-65
2022/01/27 03:17:39;;;;;;;16.45;6.47;;;;;;;-7.27;94.41;99546.06;4997130;28;20053;-62
2022/01/27 03:20:07;;;;;;;15.43;5.45;;;;;;;-7.35;92.07;99537.50;4980905;28;20128;-64
2022/01/27 03:22:32;;;;;;;15.75;7.22;;;;;;;-7.46;92.96;99534.31;5029791;28;20049;-64
2022/01/27 03:24:58;;;;;;;15.18;5.75;;;;;;;-7.39;95.53;99535.88;5012752;28;20042;-64
2022/01/27 03:27:26;;;;;;;14.85;6.43;;;;;;;-7.29;95.64;99547.84;5013067;28;20555;-65
2022/01/27 03:29:52;;;;;;;17.52;6.97;;;;;;;-7.29;95.38;99534.72;4996926;28;20045;-63
2022/01/27 03:32:18;;;;;;;16.83;6.82;;;;;;;-7.29;94.46;99547.84;4981289;28;20087;-63
2022/01/27 03:34:44;;;;;;;17.98;7.03;;;;;;;-7.29;95.48;99553.97;5030153;28;20037;-63
2022/01/27 03:37:10;;;;;;;16.95;5.43;;;;;;;-7.30;95.16;99551.38;5031491;28;20382;-65
2022/01/27 03:39:38;;;;;;;12.73;5.13;;;;;;;-7.21;95.37;99560.75;5013625;28;20141;-64
2022/01/27 03:42:05;;;;;;;17.00;6.03;;;;;;;-7.30;93.76;99554.88;5013329;28;20065;-65
2022/01/27 03:44:31;;;;;;;12.38;5.45;;;;;;;-7.34;92.39;99544.50;4964883;28;20142;-65
2022/01/27 03:46:58;;;;;;;14.30;6.13;;;;;;;-7.34;92.21;99544.50;4980752;28;20084;-64
2022/01/27 03:49:24;;;;;;;16.48;7.00;;;;;;;-7.39;93.38;99541.13;4996926;28;20479;-64
2022/01/27 03:51:50;;;;;;;16.33;5.55;;;;;;;-7.33;94.41;99535.72;4996581;28;20115;-64
2022/01/27 03:54:16;;;;;;;15.98;6.10;;;;;;;-7.36;94.83;99526.16;4996884;28;20147;-65
2022/01/27 03:56:42;;;;;;;12.25;4.30;;;;;;;-7.41;92.12;99537.69;4980826;28;20152;-64
2022/01/27 03:59:08;;;;;;;13.90;4.80;;;;;;;-7.46;91.66;99523.81;4997200;28;20084;-63
2022/01/27 04:01:35;;;;;;;15.32;5.22;;;;;;;-7.38;92.62;99542.88;4997543;28;20143;-64
2022/01/27 04:04:01;;;;;;;12.50;4.70;;;;;;;-7.39;92.38;99535.88;5013499;28;20524;-65
2022/01/27 04:06:39;;;;;;;13.15;4.43;;;;;;;-7.39;92.25;99541.13;5013054;28;20144;-63
2022/01/27 04:09:07;;;;;;;14.15;4.40;;;;;;;-7.35;93.13;99537.50;5028917;28;20045;-63
2022/01/27 04:11:33;;;;;;;9.98;3.25;;;;;;;-7.37;92.36;99536.72;4996258;28;20132;-64
2022/01/27 04:13:59;;;;;;;11.73;3.50;;;;;;;-7.44;92.90;99532.53;4995538;28;20059;-68
2022/01/27 04:16:25;;;;;;;12.00;3.40;;;;;;;-7.48;93.19;99533.50;4996123;28;20147;-64
2022/01/27 04:18:51;;;;;;;12.05;4.07;;;;;;;-7.60;93.95;99530.31;4980386;28;20049;-64
2022/01/27 04:21:17;;;;;;;12.25;4.03;;;;;;;-7.71;94.64;99514.00;4981366;28;20107;-64
2022/01/27 04:23:43;;;;;;;12.85;4.25;;;;;;;-7.84;95.86;99512.59;4997279;28;20115;-65
2022/01/27 04:26:11;;;;;;;13.45;4.57;;;;;;;-7.90;96.06;99513.59;4996272;28;20041;-64
2022/01/27 04:28:38;;;;;;;11.90;3.80;;;;;;;-8.04;96.29;99511.34;5012390;28;20152;-64
2022/01/27 04:31:07;;;;;;;15.30;5.20;;;;;;;-8.08;97.13;99522.81;4979546;28;20132;-64
2022/01/27 04:33:35;;;;;;;12.27;3.85;;;;;;;-8.16;97.81;99501.16;4995907;28;20236;-64
2022/01/27 04:36:06;;;;;;;12.25;4.80;;;;;;;-8.07;98.13;99508.81;4997558;28;20046;-64
2022/01/27 04:48:40;;;;;;;16.73;5.05;;;;;;;-8.08;98.52;99499.22;5015926;28;20369;-65
2022/01/27 04:51:10;;;;;;;16.70;4.90;;;;;;;-8.06;98.09;99507.91;5000967;28;20041;-64
2022/01/27 04:53:43;;;;;;;14.45;4.63;;;;;;;-8.07;98.53;99511.44;4983364;28;20054;-65
2022/01/27 04:56:12;;;;;;;12.07;4.72;;;;;;;-8.18;98.12;99481.13;5015457;28;20124;-65
2022/01/27 04:58:40;;;;;;;12.32;4.55;;;;;;;-8.01;97.89;99503.41;4998961;28;20045;-64
2022/01/27 05:01:07;;;;;;;11.73;4.57;;;;;;;-8.04;97.65;99500.00;5007841;28;20045;-64
2022/01/27 05:03:39;;;;;;;17.90;4.78;;;;;;;-8.11;98.55;99494.06;4996593;28;20052;-65
2022/01/27 05:06:05;;;;;;;13.95;5.35;;;;;;;-7.99;97.86;99518.25;4995829;28;20056;-64
2022/01/27 05:08:32;;;;;;;13.45;5.40;;;;;;;-7.99;98.08;99507.75;5002304;28;20059;-65
2022/01/27 05:11:06;;;;;;;15.05;4.80;;;;;;;-7.98;97.98;99510.31;4994221;28;20317;-65
2022/01/27 05:13:40;;;;;;;15.02;5.07;;;;;;;-7.94;97.19;99516.34;5007946;28;20052;-64
2022/01/27 05:16:06;;;;;;;13.70;4.90;;;;;;;-7.94;97.24;99500.63;4985400;28;20416;-64
2022/01/27 05:18:32;;;;;;;11.88;4.28;;;;;;;-8.01;97.18;99503.41;5018308;28;20055;-64
2022/01/27 05:20:58;;;;;;;12.75;4.13;;;;;;;-7.96;97.05;99505.06;4991372;28;20030;-64
2022/01/27 05:23:24;;;;;;;16.48;5.35;;;;;;;-7.98;96.97;99498.97;4982409;28;20144;-64
2022/01/27 05:25:50;;;;;;;13.63;4.80;;;;;;;-7.94;96.40;99503.22;4999149;28;20407;-64
2022/01/27 05:28:15;;;;;;;13.50;5.22;;;;;;;-7.94;96.52;99506.72;5003313;28;20091;-64
2022/01/27 05:30:41;;;;;;;13.05;4.47;;;;;;;-8.00;96.59;99499.03;5021445;28;20042;-64
2022/01/27 05:33:09;;;;;;;14.70;5.10;;;;;;;-8.09;97.27;99512.34;4999436;28;20488;-64
2022/01/27 05:35:36;;;;;;;14.00;5.57;;;;;;;-8.20;96.89;99509.16;4983424;28;20038;-64
2022/01/27 05:38:03;;;;;;;13.75;4.88;;;;;;;-8.34;97.97;99509.47;4966334;28;20044;-63
2022/01/27 05:40:29;;;;;;;15.25;5.47;;;;;;;-8.35;98.20;99511.25;4966378;28;20042;-64
2022/01/27 05:42:55;;;;;;;14.23;5.32;;;;;;;-8.46;98.45;99509.81;4982631;28;20487;-64
2022/01/27 05:45:21;;;;;;;10.45;4.75;;;;;;;-8.69;99.20;99494.66;4982252;28;20046;-64
2022/01/27 05:47:47;;;;;;;17.70;6.57;;;;;;;-8.58;100.00;99511.81;4981578;28;20053;-64
2022/01/27 05:50:13;;;;;;;15.70;6.57;;;;;;;-8.59;99.94;99504.88;5014549;28;20501;-66
2022/01/27 05:52:51;;;;;;;14.30;5.70;;;;;;;-8.60;100.00;99508.38;4981061;28;20094;-64
2022/01/27 05:55:17;;;;;;;13.75;5.95;;;;;;;-8.68;100.00;99502.44;4984653;28;20131;-64
2022/01/27 05:57:43;;;;;;;15.98;6.47;;;;;;;-8.67;100.00;99504.16;4989099;28;20152;-65
2022/01/27 06:00:10;;;;;;;16.70;5.90;;;;;;;-8.68;100.00;99496.34;4986269;28;20049;-66
2022/01/27 06:02:39;;;;;;;21.52;6.43;;;;;;;-8.66;100.00;99500.66;5028669;28;20037;-65
2022/01/27 06:05:05;;;;;;;16.98;6.03;;;;;;;-8.71;100.00;99496.41;5010495;28;20056;-67
2022/01/27 06:07:31;;;;;;;18.92;7.00;;;;;;;-8.60;100.00;99505.75;4984684;28;20043;-65
2022/01/27 06:09:57;;;;;;;23.30;6.95;;;;;;;-8.64;100.00;99488.38;5030377;28;20065;-65
2022/01/27 06:12:24;;;;;;;16.20;6.78;;;;;;;-8.75;100.00;99464.19;4980723;28;20056;-65
2022/01/27 06:14:50;;;;;;;18.85;6.80;;;;;;;-8.43;99.35;99501.88;4979564;28;20125;-65
2022/01/27 06:17:16;;;;;;;17.73;7.60;;;;;;;-8.12;97.95;99492.31;4984607;28;20029;-66
2022/01/27 06:19:45;;;;;;;15.75;6.82;;;;;;;-8.15;96.77;99484.53;4988762;28;20156;-66
2022/01/27 06:22:12;;;;;;;14.43;5.53;;;;;;;-8.25;96.23;99467.31;5018769;28;20635;-66
2022/01/27 06:24:42;;;;;;;15.20;4.55;;;;;;;-8.08;95.57;99479.97;5029200;28;20485;-66
2022/01/27 06:27:08;;;;;;;13.65;5.90;;;;;;;-8.06;95.00;99486.91;4985643;28;20567;-66
2022/01/27 06:29:34;;;;;;;15.27;5.88;;;;;;;-8.07;95.04;99479.09;5029545;28;20501;-66
2022/01/27 06:32:01;;;;;;;19.40;5.43;;;;;;;-8.05;94.80;99475.50;4978788;28;20065;-66
2022/01/27 06:34:27;;;;;;;13.68;4.82;;;;;;;-7.96;94.59;99481.44;5012044;28;20485;-66
2022/01/27 06:36:52;;;;;;;13.10;4.63;;;;;;;-7.92;93.68;99483.09;4968520;28;20579;-66
2022/01/27 06:39:18;;;;;;;13.88;5.22;;;;;;;-7.85;92.98;99479.41;4987288;28;20044;-66
2022/01/27 06:41:45;;;;;;;11.50;4.28;;;;;;;-7.76;93.31;99468.66;4981179;28;20520;-66
2022/01/27 06:44:11;;;;;;;13.45;3.88;;;;;;;-7.74;91.56;99472.09;5011090;28;20084;-66
2022/01/27 06:46:37;;;;;;;13.90;4.18;;;;;;;-7.57;92.01;99485.63;5025541;28;20131;-65
2022/01/27 06:49:04;;;;;;;16.35;5.00;;;;;;;-7.60;90.54;99476.97;5005010;28;20506;-66
2022/01/27 06:51:30;;;;;;;14.20;5.32;;;;;;;-7.66;90.72;99485.88;5043576;28;20041;-66
2022/01/27 06:53:57;;;;;;;17.73;5.60;;;;;;;-7.63;91.25;99474.44;5002007;28;20463;-65
2022/01/27 06:56:24;;;;;;;17.33;6.97;;;;;;;-7.67;91.55;99478.06;5000302;28;20064;-66
2022/01/27 06:58:49;;;;;;;17.27;5.70;;;;;;;-7.68;91.12;99481.56;4978713;28;20530;-66
2022/01/27 07:01:15;;;;;;;16.10;5.68;;;;;;;-7.73;90.62;99488.69;4977971;28;20188;-65
2022/01/27 07:03:41;;;;;;;17.08;7.32;;;;;;;-7.73;90.00;99489.56;4995529;28;20259;-66
2022/01/27 07:06:07;;;;;;;17.25;6.72;;;;;;;-7.71;89.59;99492.13;4996013;28;20053;-66
2022/01/27 07:08:33;;;;;;;18.10;7.18;;;;;;;-7.73;89.63;99489.56;4969036;28;20107;-67
2022/01/27 07:10:59;;;;;;;14.80;5.60;;;;;;;-7.65;90.03;99487.56;4979408;28;20034;-65
2022/01/27 07:13:25;;;;;;;16.10;6.40;;;;;;;-7.65;90.28;99487.56;4995739;28;20045;-66
2022/01/27 07:15:51;;;;;;;17.05;6.43;;;;;;;-7.60;90.46;99490.09;4978523;28;20041;-65
2022/01/27 07:18:17;;;;;;;14.75;6.20;;;;;;;-7.60;90.31;99485.72;4978258;28;20119;-65
2022/01/27 07:20:43;;;;;;;13.38;5.63;;;;;;;-7.48;88.19;99489.75;4987747;28;20128;-65
2022/01/27 07:23:09;;;;;;;18.58;4.82;;;;;;;-7.40;87.64;99493.00;5009848;28;20459;-65
2022/01/27 07:25:35;;;;;;;16.20;6.95;;;;;;;-7.46;87.29;99476.56;4979111;28;20048;-65
2022/01/27 07:28:01;;;;;;;15.32;6.15;;;;;;;-7.40;87.30;99489.53;5001932;28;20052;-65
2022/01/27 07:30:27;;;;;;;16.85;7.05;;;;;;;-7.37;87.69;99478.94;5002403;28;20108;-65
2022/01/27 07:32:54;;;;;;;17.40;6.78;;;;;;;-7.30;86.87;99489.22;4977184;28;20092;-65
2022/01/27 07:35:19;;;;;;;16.98;6.70;;;;;;;-7.22;86.04;99491.63;4979109;28;20046;-65
2022/01/27 07:37:46;;;;;;;18.55;5.72;;;;;;;-7.01;84.27;99494.53;5001517;28;20037;-66
2022/01/27 07:40:13;;;;;;;17.77;5.95;;;;;;;-6.62;81.83;99481.94;4983953;28;20099;-64
2022/01/27 07:42:39;;;;;;;18.33;6.20;;;;;;;-4.81;75.05;99486.97;5043498;28;20152;-65
2022/01/27 07:45:06;;;;;;;16.45;6.90;;;;;;;-1.72;63.34;99481.03;5013018;28;20058;-65
2022/01/27 07:47:32;;;;;;;14.55;6.68;;;;;;;0.63;55.03;99479.44;5011123;28;20054;-65
2022/01/27 07:49:58;;;;;;;12.98;5.13;;;;;;;1.11;51.70;99489.81;5002692;28;20052;-65
2022/01/27 07:52:24;;;;;;;14.38;5.72;;;;;;;0.74;50.78;99485.91;4998950;28;20060;-65
2022/01/27 07:54:50;;;;;;;13.57;4.82;;;;;;;-1.32;56.34;99478.94;5015300;28;20046;-65
2022/01/27 07:57:16;;;;;;;12.23;4.55;;;;;;;-3.34;61.57;99474.69;4997439;28;20063;-65
2022/01/27 07:59:42;;;;;;;12.77;4.32;;;;;;;-4.23;65.12;99467.97;5011382;28;20134;-65
2022/01/27 08:02:08;;;;;;;9.27;3.30;;;;;;;-4.39;67.20;99470.34;5031488;28;20087;-65
2022/01/27 08:04:34;;;;;;;12.52;3.88;;;;;;;-4.88;67.60;99472.31;5014475;28;20076;-65
2022/01/27 08:07:02;;;;;;;7.30;2.35;;;;;;;-4.88;66.85;99467.03;5005670;28;20042;-64
2022/01/27 08:09:28;;;;;;;7.72;2.42;;;;;;;-5.12;67.58;99464.44;5021241;28;20128;-65
2022/01/27 08:11:54;;;;;;;8.30;2.20;;;;;;;-5.21;68.18;99472.66;5014084;28;20044;-69
2022/01/27 08:14:20;;;;;;;9.25;2.00;;;;;;;-5.28;67.89;99479.06;5005788;28;20044;-65
2022/01/27 08:16:47;;;;;;;8.38;2.53;;;;;;;-5.34;68.98;99469.63;5013075;28;20155;-65
2022/01/27 08:19:13;;;;;;;7.32;2.20;;;;;;;-5.28;68.67;99465.91;5011560;28;20049;-64
2022/01/27 08:21:39;;;;;;;7.97;2.13;;;;;;;-5.69;67.45;99463.00;4997605;28;20178;-65
2022/01/27 08:24:05;;;;;;;9.65;2.22;;;;;;;-5.82;68.59;99470.44;5001616;28;20519;-64
2022/01/27 08:26:37;;;;;;;9.15;2.28;;;;;;;-5.45;68.65;99455.13;5008200;28;20049;-65
2022/01/27 08:29:11;;;;;;;9.50;2.40;;;;;;;-5.53;67.36;99454.53;5043204;28;20450;-64
2022/01/27 08:34:29;;;;;;;7.93;2.10;;;;;;;-5.28;66.22;99450.09;5005707;28;20052;-65
2022/01/27 08:36:56;;;;;;;10.50;2.50;;;;;;;-4.67;64.30;99447.72;4998173;28;20139;-64
2022/01/27 08:39:21;;;;;;;7.80;2.10;;;;;;;-4.37;63.56;99444.78;5039109;28;20130;-64
2022/01/27 08:41:47;;;;;;;7.85;2.03;;;;;;;-4.28;62.17;99447.03;5011987;28;20521;-65
2022/01/27 08:44:13;;;;;;;8.30;2.38;;;;;;;-3.73;61.76;99446.47;4993952;28;20046;-64
2022/01/27 08:46:39;;;;;;;10.15;3.03;;;;;;;-4.10;61.08;99448.03;4994363;28;20037;-65
2022/01/27 08:49:06;;;;;;;8.27;2.72;;;;;;;-3.84;61.44;99439.00;4969601;28;20465;-64
2022/01/27 08:51:32;;;;;;;9.70;3.13;;;;;;;-3.63;59.65;99437.22;4979286;28;20492;-66
2022/01/27 08:53:58;;;;;;;8.32;2.53;;;;;;;-2.63;56.96;99422.03;5021133;28;20045;-65
2022/01/27 08:56:24;;;;;;;8.27;2.47;;;;;;;-1.99;55.05;99424.16;5028442;28;20053;-65
2022/01/27 08:58:50;;;;;;;7.78;2.33;;;;;;;-0.95;52.48;99421.28;4994953;28;20064;-67
2022/01/27 09:01:16;;;;;;;8.27;2.03;;;;;;;-0.74;52.58;99409.44;4996531;28;20041;-65
2022/01/27 09:03:43;;;;;;;7.85;2.50;;;;;;;-2.34;55.20;99416.19;5000433;28;20059;-65
2022/01/27 09:06:09;;;;;;;11.75;4.32;;;;;;;-2.69;56.56;99420.56;5004368;28;20554;-69
2022/01/27 09:08:35;;;;;;;11.73;3.90;;;;;;;-2.72;57.13;99424.19;4977364;28;20077;-69
2022/01/27 09:11:01;;;;;;;12.88;4.72;;;;;;;-2.72;57.62;99416.25;5003013;28;20045;-65
2022/01/27 09:13:26;;;;;;;12.15;4.05;;;;;;;-3.49;59.86;99426.03;4974762;28;20041;-65
2022/01/27 09:15:53;;;;;;;10.27;3.42;;;;;;;-3.80;61.60;99413.31;5002920;28;20463;-73
2022/01/27 09:18:19;;;;;;;10.55;4.03;;;;;;;-3.85;61.27;99426.72;5025870;28;20041;-67
2022/01/27 09:20:45;;;;;;;13.20;4.55;;;;;;;-3.68;61.48;99426.00;4999873;28;20131;-70
2022/01/27 09:23:14;;;;;;;11.70;4.32;;;;;;;-3.97;62.19;99419.34;4971032;28;20444;-66
2022/01/27 09:25:47;;;;;;;13.10;4.88;;;;;;;-3.25;60.66;99406.44;4990455;28;20038;-65
2022/01/27 09:28:13;;;;;;;13.80;3.42;;;;;;;-3.95;61.99;99425.41;5007308;28;20179;-65
2022/01/27 09:30:41;;;;;;;12.50;4.10;;;;;;;-4.08;61.21;99367.00;5007001;28;20111;-65
2022/01/27 09:33:08;;;;;;;8.63;2.53;;;;;;;-2.85;58.72;99398.41;4997860;28;20064;-66
2022/01/27 09:35:34;;;;;;;8.95;2.58;;;;;;;-3.78;60.77;99404.41;4991780;28;20053;-64
2022/01/27 09:38:00;;;;;;;8.80;2.70;;;;;;;-4.07;62.08;99396.91;4999806;28;20045;-64
2022/01/27 09:40:28;;;;;;;8.23;2.70;;;;;;;-3.71;60.83;99411.13;5004225;28;20072;-65
2022/01/27 09:42:55;;;;;;;7.65;1.98;;;;;;;-4.48;62.23;99415.34;4980286;28;20041;-66
2022/01/27 09:45:23;;;;;;;7.53;1.70;;;;;;;-4.91;64.14;99417.06;5004576;28;20064;-66
2022/01/27 09:47:59;;;;;;;8.27;2.00;;;;;;;-5.23;65.30;99413.91;4999622;28;20052;-67
2022/01/27 09:50:48;;;;;;;9.18;2.22;;;;;;;-5.31;65.50;99365.91;4975475;28;20045;-66
2022/01/27 09:53:16;;;;;;;6.97;2.17;;;;;;;-4.87;65.37;99418.66;5014337;28;20029;-66
2022/01/27 09:55:42;;;;;;;9.38;2.55;;;;;;;-3.48;60.84;99425.09;5018645;28;20488;-68
2022/01/27 09:58:08;;;;;;;9.52;2.42;;;;;;;-3.52;60.74;99418.25;4984287;28;20099;-68
2022/01/27 10:00:35;;;;;;;6.70;2.45;;;;;;;-3.06;60.24;99416.16;5016134;28;20053;-66
2022/01/27 10:03:19;;;;;;;8.05;1.90;;;;;;;-2.23;56.64;99413.88;4997122;28;20493;-66
2022/01/27 10:05:45;;;;;;;8.25;2.47;;;;;;;-0.78;52.67;99415.88;4982187;28;20089;-66
2022/01/27 10:08:15;;;;;;;9.48;2.42;;;;;;;0.13;49.89;99419.50;5046516;28;20539;-66
2022/01/27 10:10:45;;;;;;;8.38;2.83;;;;;;;-0.21;47.95;99410.00;4998190;28;20056;-66
2022/01/27 10:13:27;;;;;;;7.45;2.22;;;;;;;-0.44;48.19;99392.72;5027887;28;20077;-67
2022/01/27 10:15:56;;;;;;;7.47;2.28;;;;;;;-0.64;49.75;99399.19;4999225;28;20049;-66
2022/01/27 10:18:25;;;;;;;8.25;2.40;;;;;;;-2.46;55.05;99403.56;5002205;28;20227;-67
2022/01/27 10:21:05;;;;;;;7.55;2.03;;;;;;;-3.32;56.84;99356.56;5020170;28;20131;-68
2022/01/27 10:23:33;;;;;;;8.10;2.33;;;;;;;-3.33;57.75;99413.84;5012009;28;20049;-66
2022/01/27 10:26:13;;;;;;;7.07;2.00;;;;;;;-3.46;58.05;99391.56;5008294;28;20123;-67
2022/01/27 10:31:20;;;;;;;7.82;2.30;;;;;;;-2.01;54.42;99375.69;5003441;28;20044;-67
2022/01/27 10:33:48;;;;;;;7.28;2.30;;;;;;;-0.68;51.66;99391.50;5000989;28;20045;-67
2022/01/27 10:36:19;;;;;;;7.57;2.25;;;;;;;-0.37;50.07;99380.81;4993395;28;20045;-68
2022/01/27 10:38:45;;;;;;;9.63;2.97;;;;;;;-2.62;55.95;99389.38;4988503;28;20050;-67
2022/01/27 10:41:11;;;;;;;8.18;2.22;;;;;;;-1.75;52.98;99380.50;5017352;28;20045;-66
2022/01/27 10:43:37;;;;;;;6.22;1.85;;;;;;;-1.98;53.63;99381.69;4998285;28;20098;-67
2022/01/27 10:46:09;;;;;;;6.60;2.25;;;;;;;-1.90;53.19;99362.75;5016497;28;20425;-67
2022/01/27 10:48:40;;;;;;;7.13;2.00;;;;;;;-2.00;53.56;99367.66;5001652;28;20049;-66
2022/01/27 10:51:15;;;;;;;7.07;2.22;;;;;;;-1.55;52.99;99367.97;5030351;28;20081;-67
2022/01/27 10:53:52;;;;;;;8.32;2.35;;;;;;;-1.81;52.99;99364.06;5029866;28;20519;-66
2022/01/27 10:56:23;;;;;;;9.35;2.28;;;;;;;-2.27;54.00;99364.63;5013714;28;20060;-68
2022/01/27 10:58:49;;;;;;;;;;;;;;;-1.35;52.21;99378.38;5004069;28;20051;-67
2022/01/27 11:01:25;;;;;;;7.90;2.30;;;;;;;-1.48;52.45;99353.47;5016176;28;20314;-67
2022/01/27 11:03:53;;;;;;;7.03;2.42;;;;;;;-2.36;53.86;99365.09;5045030;28;20048;-67
2022/01/27 11:06:20;;;;;;;7.18;2.13;;;;;;;-2.84;55.98;99358.66;5020533;28;20055;-67
2022/01/27 11:08:47;;;;;;;10.73;2.28;;;;;;;-2.25;54.32;99368.06;5022488;28;20057;-67
2022/01/27 11:11:14;;;;;;;8.10;2.15;;;;;;;-2.10;54.14;99365.56;5047021;28;20330;-67
2022/01/27 11:13:43;;;;;;;6.65;2.10;;;;;;;-1.11;50.86;99351.44;5024467;28;20495;-67
2022/01/27 11:16:13;;;;;;;6.30;1.83;;;;;;;-1.33;52.24;99342.00;5025775;28;20040;-67
2022/01/27 11:18:39;;;;;;;6.97;1.92;;;;;;;-2.33;53.74;99341.13;5030437;28;20186;-67
2022/01/27 11:21:12;;;;;;;6.97;2.03;;;;;;;-2.81;54.92;99347.94;4995307;28;20052;-67
2022/01/27 11:26:10;;;;;;;7.68;1.98;;;;;;;-3.31;56.38;99345.91;5046722;28;20061;-67
2022/01/27 11:28:37;;;;;;;7.72;1.98;;;;;;;-3.92;58.08;99338.16;4993320;28;20112;-67
2022/01/27 11:31:32;;;;;;;7.55;2.10;;;;;;;-4.61;61.27;99342.00;4995012;28;20068;-67
2022/01/27 11:34:03;;;;;;;8.88;2.63;;;;;;;-4.63;62.14;99346.47;5004163;28;20405;-67
2022/01/27 11:36:29;;;;;;;7.45;2.20;;;;;;;-4.79;63.02;99331.34;5029299;28;20431;-67
2022/01/27 11:38:57;;;;;;;7.13;1.98;;;;;;;-4.88;63.40;99322.03;5046431;28;20048;-67
2022/01/27 11:41:43;;;;;;;7.35;2.03;;;;;;;-4.71;62.75;99318.72;5014674;28;20045;-67
2022/01/27 11:44:28;;;;;;;7.90;2.25;;;;;;;-4.73;62.95;99321.41;5012514;28;20050;-67
2022/01/27 11:47:14;;;;;;;8.63;2.38;;;;;;;-4.46;63.09;99323.78;5041297;28;20119;-67
2022/01/27 11:50:07;;;;;;;8.55;2.38;;;;;;;-4.98;64.30;99294.34;5019964;28;20077;-67
2022/01/27 11:52:34;;;;;;;9.10;2.38;;;;;;;-4.85;64.79;99329.81;5018702;28;20048;-66
2022/01/27 11:55:26;;;;;;;10.57;3.08;;;;;;;-5.04;65.12;99320.97;5030018;28;20558;-67
2022/01/27 11:57:54;;;;;;;7.72;2.47;;;;;;;-4.97;65.44;99311.84;5030848;28;20485;-67
2022/01/27 12:00:30;;;;;;;11.95;3.63;;;;;;;-5.26;66.29;99316.53;5033581;28;20048;-68
2022/01/27 12:03:02;;;;;;;9.95;3.00;;;;;;;-5.22;66.57;99318.13;5007765;28;20528;-67
2022/01/27 12:05:29;;;;;;;9.63;3.10;;;;;;;-5.14;67.14;99310.78;5036017;28;20195;-66
2022/01/27 12:08:14;;;;;;;11.75;3.65;;;;;;;-4.98;65.97;99318.06;5018480;28;20041;-67
2022/01/27 12:10:46;;;;;;;10.38;3.38;;;;;;;-4.81;65.83;99317.38;5025253;28;20045;-66
2022/01/27 12:13:29;;;;;;;11.63;3.22;;;;;;;-5.02;66.84;99311.19;5028317;28;20061;-67
2022/01/27 12:16:36;;;;;;;9.82;2.97;;;;;;;-4.86;66.62;99314.94;5010227;28;20064;-67
2022/01/27 12:19:10;;;;;;;9.85;2.97;;;;;;;-4.92;66.31;99309.91;5021806;28;20515;-66
2022/01/27 12:21:39;;;;;;;11.73;3.35;;;;;;;-4.58;65.26;99313.78;5018822;28;20394;-66
2022/01/27 12:24:15;;;;;;;12.30;3.03;;;;;;;-4.56;65.64;99306.66;5022332;28;20042;-66